Time;durP1;ratioP1;P1;durP2;ratioP2;P2;SDS_P1;SDS_P2;PMS_P1;PMS_P2;Temp;Humidity;BMP_temperature;BMP_pressure;BME280_temperature;BME280_humidity;BME280_pressure;Samples;Min_cycle;Max_cycle;Signal;HPM_P1;HPM_P2
2022/11/21 00:00:28;;;;;;;7.10;3.35;;;;;;;1.57;100.00;100610.28;5054734;28;20032;-79
2022/11/21 00:03:00;;;;;;;2.03;1.65;;;;;;;1.54;100.00;100607.03;5041231;28;20034;-79
2022/11/21 00:05:25;;;;;;;;;;;;;;;1.64;100.00;100624.56;5058493;28;20587;-78
2022/11/21 00:07:51;;;;;;;1.85;1.50;;;;;;;1.50;100.00;100589.97;5072795;28;19912;-80
2022/11/21 00:10:16;;;;;;;3.42;1.90;;;;;;;1.65;100.00;100604.56;5054943;28;20104;-78
2022/11/21 00:12:42;;;;;;;5.07;3.28;;;;;;;1.50;100.00;100585.59;5057607;28;20462;-79
2022/11/21 00:15:08;;;;;;;4.03;1.63;;;;;;;1.54;100.00;100591.44;5078811;28;20032;-79
2022/11/21 00:17:33;;;;;;;4.05;3.13;;;;;;;1.60;100.00;100597.06;5056010;28;20057;-79
2022/11/21 00:19:59;;;;;;;3.03;2.03;;;;;;;1.61;100.00;100593.56;5079273;28;20119;-79
2022/11/21 00:22:24;;;;;;;11.40;2.40;;;;;;;1.47;100.00;100593.59;5079540;28;20040;-79
2022/11/21 00:24:49;;;;;;;3.90;2.47;;;;;;;1.29;100.00;100569.59;5071651;28;20029;-79
2022/11/21 00:27:15;;;;;;;6.35;2.45;;;;;;;1.13;100.00;100546.34;5045257;28;20091;-79
2022/11/21 00:29:40;;;;;;;5.20;2.28;;;;;;;1.16;100.00;100561.72;5060515;28;20048;-78
2022/11/21 00:32:06;;;;;;;10.38;1.92;;;;;;;1.26;100.00;100576.75;5061737;28;20115;-78
2022/11/21 00:34:31;;;;;;;3.10;2.20;;;;;;;1.11;100.00;100558.59;5078156;28;20032;-78
2022/11/21 00:36:56;;;;;;;2.63;2.42;;;;;;;0.96;100.00;100562.97;5048785;28;20025;-78
2022/11/21 00:39:22;;;;;;;3.55;3.08;;;;;;;0.87;100.00;100550.56;5079284;28;20032;-79
2022/11/21 00:41:47;;;;;;;4.35;2.90;;;;;;;0.93;100.00;100549.34;5045195;28;20461;-79
2022/11/21 00:44:12;;;;;;;2.00;1.23;;;;;;;0.98;100.00;100552.47;5058859;28;20043;-79
2022/11/21 00:46:38;;;;;;;1.92;1.77;;;;;;;1.12;100.00;100569.81;5062831;28;20039;-79
2022/11/21 00:49:03;;;;;;;9.77;4.18;;;;;;;1.16;100.00;100577.31;5049434;28;20037;-79
2022/11/21 00:51:28;;;;;;;4.75;2.67;;;;;;;1.09;100.00;100560.47;5060170;28;20032;-79
2022/11/21 00:53:54;;;;;;;2.40;2.03;;;;;;;1.03;100.00;100559.06;5048568;28;20743;-80
2022/11/21 00:56:19;;;;;;;4.38;2.47;;;;;;;1.11;100.00;100574.19;5061811;28;20043;-79
2022/11/21 00:58:44;;;;;;;2.28;1.63;;;;;;;1.05;100.00;100561.56;5079596;28;20082;-79
2022/11/21 01:01:13;;;;;;;4.45;2.80;;;;;;;1.01;100.00;100565.28;5080668;28;20068;-78
2022/11/21 01:03:39;;;;;;;6.50;2.22;;;;;;;0.84;100.00;100537.75;5063135;28;20502;-79
2022/11/21 01:06:10;;;;;;;4.78;2.53;;;;;;;0.86;100.00;100559.28;5079788;28;20039;-79
2022/11/21 01:08:37;;;;;;;4.40;1.98;;;;;;;0.85;100.00;100564.56;5078213;28;20043;-79
2022/11/21 01:11:09;;;;;;;5.90;2.03;;;;;;;0.53;100.00;100523.22;5062683;28;20088;-79
2022/11/21 01:13:34;;;;;;;4.50;2.25;;;;;;;0.58;100.00;100541.94;5075204;28;20513;-78
2022/11/21 01:16:09;;;;;;;2.95;2.70;;;;;;;0.43;100.00;100540.28;5043494;28;20517;-78
2022/11/21 01:18:36;;;;;;;3.05;2.53;;;;;;;0.54;100.00;100579.41;5057037;28;20451;-78
2022/11/21 01:21:06;;;;;;;5.82;3.60;;;;;;;0.33;100.00;100560.78;5072078;28;20567;-78
2022/11/21 01:23:31;;;;;;;7.35;2.47;;;;;;;0.39;100.00;100574.22;5074526;28;20031;-78
2022/11/21 01:26:02;;;;;;;3.75;2.70;;;;;;;0.40;100.00;100585.44;5042565;28;20044;-78
2022/11/21 01:28:28;;;;;;;2.50;1.98;;;;;;;0.30;100.00;100566.97;5074842;28;20553;-78
2022/11/21 01:30:53;;;;;;;4.65;1.75;;;;;;;0.39;100.00;100584.63;5039141;28;20032;-78
2022/11/21 01:33:18;;;;;;;2.60;1.95;;;;;;;0.36;100.00;100587.38;5055733;28;20086;-77
2022/11/21 01:35:44;;;;;;;3.03;2.55;;;;;;;0.30;100.00;100581.72;5057573;28;20471;-78
2022/11/21 01:38:09;;;;;;;1.85;1.75;;;;;;;0.12;100.00;100562.88;5057980;28;20101;-78
2022/11/21 01:40:38;;;;;;;2.50;2.28;;;;;;;0.02;100.00;100548.75;5046194;28;20028;-77
2022/11/21 01:43:14;;;;;;;3.67;1.80;;;;;;;0.11;100.00;100569.81;5009462;28;20124;-78
2022/11/21 01:45:51;;;;;;;3.42;2.60;;;;;;;0.09;100.00;100573.44;5038440;28;20043;-77
2022/11/21 01:48:17;;;;;;;3.05;2.17;;;;;;;0.21;100.00;100583.09;5054669;28;20040;-77
2022/11/21 01:50:43;;;;;;;4.20;2.67;;;;;;;0.16;100.00;100579.94;5069953;28;20496;-77
2022/11/21 01:53:09;;;;;;;5.68;2.25;;;;;;;0.05;100.00;100577.13;5040513;28;20032;-77
2022/11/21 01:55:35;;;;;;;2.88;2.65;;;;;;;-0.06;100.00;100560.44;5070187;28;20492;-76
2022/11/21 01:58:01;;;;;;;7.13;3.05;;;;;;;-0.05;100.00;100559.47;5040856;28;20055;-76
2022/11/21 02:00:33;;;;;;;3.92;2.63;;;;;;;-0.07;100.00;100557.91;5041522;28;20028;-77
2022/11/21 02:03:03;;;;;;;4.32;3.17;;;;;;;0.05;100.00;100558.97;5071701;28;20038;-77
2022/11/21 02:05:32;;;;;;;3.42;2.85;;;;;;;0.02;100.00;100552.19;5051988;28;20388;-77
2022/11/21 02:08:04;;;;;;;2.40;2.15;;;;;;;0.16;100.00;100560.00;5055797;28;20096;-77
2022/11/21 02:10:29;;;;;;;3.75;2.30;;;;;;;0.34;100.00;100580.59;5059852;28;20589;-77
2022/11/21 02:12:57;;;;;;;5.35;4.25;;;;;;;0.34;100.00;100581.44;5042280;28;20051;-77
2022/11/21 02:15:25;;;;;;;3.35;2.72;;;;;;;0.29;100.00;100575.69;5073072;28;20032;-77
2022/11/21 02:17:51;;;;;;;3.50;2.92;;;;;;;0.04;100.00;100544.31;5069615;28;20090;-77
2022/11/21 02:20:19;;;;;;;4.55;3.67;;;;;;;0.05;100.00;100551.19;5034137;28;20086;-77
2022/11/21 02:23:03;;;;;;;4.20;3.72;;;;;;;0.11;100.00;100571.56;5073022;28;20420;-77
2022/11/21 02:25:31;;;;;;;3.65;3.35;;;;;;;0.07;100.00;100565.75;5057061;28;20028;-77
2022/11/21 02:28:00;;;;;;;10.82;2.30;;;;;;;0.13;100.00;100569.72;5075588;28;20047;-77
2022/11/21 02:30:28;;;;;;;5.88;3.00;;;;;;;0.05;100.00;100540.81;5073873;28;20400;-77
2022/11/21 02:32:54;;;;;;;5.03;2.20;;;;;;;0.27;100.00;100556.78;5051700;28;20486;-77
2022/11/21 02:35:20;;;;;;;5.00;4.55;;;;;;;0.30;100.00;100546.19;5073471;28;20400;-77
2022/11/21 02:37:49;;;;;;;5.35;3.28;;;;;;;0.32;100.00;100554.72;5057698;28;20036;-77
2022/11/21 02:40:19;;;;;;;7.40;3.30;;;;;;;0.45;100.00;100561.78;5074878;28;20145;-77
2022/11/21 02:43:18;;;;;;;7.45;2.83;;;;;;;0.24;100.00;100536.22;5054280;28;20027;-77
2022/11/21 02:45:45;;;;;;;7.15;4.32;;;;;;;0.27;100.00;100551.59;5068656;28;20115;-77
2022/11/21 02:48:11;;;;;;;3.55;3.20;;;;;;;0.20;100.00;100539.91;5055733;28;20040;-77
2022/11/21 02:50:39;;;;;;;7.20;4.05;;;;;;;0.28;100.00;100548.03;5073867;28;20043;-77
2022/11/21 02:53:06;;;;;;;2.45;2.25;;;;;;;0.24;100.00;100537.94;5071356;28;20125;-77
2022/11/21 02:55:32;;;;;;;5.50;4.35;;;;;;;0.15;100.00;100518.56;5053412;28;20486;-77
2022/11/21 02:57:57;;;;;;;4.68;3.33;;;;;;;0.37;100.00;100547.53;5052725;28;20063;-77
2022/11/21 03:00:23;;;;;;;4.35;3.20;;;;;;;0.38;100.00;100549.19;5068300;28;20029;-77
2022/11/21 03:02:49;;;;;;;5.47;3.60;;;;;;;0.41;100.00;100545.56;5042926;28;20028;-77
2022/11/21 03:05:17;;;;;;;5.35;4.32;;;;;;;0.14;100.00;100514.31;5055078;28;20036;-77
2022/11/21 03:07:43;;;;;;;4.25;2.75;;;;;;;0.32;100.00;100544.34;5059795;28;20081;-77
2022/11/21 03:10:09;;;;;;;7.13;4.72;;;;;;;0.39;100.00;100555.19;5075690;28;20522;-77
2022/11/21 03:12:36;;;;;;;3.30;2.60;;;;;;;0.44;100.00;100544.56;5056240;28;20025;-77
2022/11/21 03:15:01;;;;;;;1.70;1.17;;;;;;;0.44;100.00;100537.59;5072404;28;20040;-77
2022/11/21 03:17:27;;;;;;;5.22;4.82;;;;;;;0.52;100.00;100557.91;5066170;28;20568;-76
2022/11/21 03:19:52;;;;;;;4.20;2.83;;;;;;;0.31;100.00;100542.69;5038944;28;20039;-77
2022/11/21 03:22:18;;;;;;;9.55;3.70;;;;;;;0.51;100.00;100558.84;5057533;28;20032;-77
2022/11/21 03:24:43;;;;;;;2.88;1.70;;;;;;;0.61;100.00;100559.97;5041229;28;20036;-77
2022/11/21 03:27:08;;;;;;;3.10;2.28;;;;;;;0.60;100.00;100537.50;5040224;28;20122;-77
2022/11/21 03:29:33;;;;;;;6.32;3.38;;;;;;;0.71;100.00;100542.88;5050476;28;20074;-77
2022/11/21 03:31:59;;;;;;;4.07;2.65;;;;;;;0.77;100.00;100539.91;5036823;28;20039;-77
2022/11/21 03:34:24;;;;;;;3.30;2.95;;;;;;;0.88;100.00;100549.63;5057982;28;20044;-77
2022/11/21 03:36:50;;;;;;;4.25;3.72;;;;;;;0.87;100.00;100539.31;5055520;28;20037;-77
2022/11/21 03:39:15;;;;;;;4.25;3.28;;;;;;;0.78;100.00;100526.00;5037487;28;20050;-77
2022/11/21 03:41:41;;;;;;;3.33;1.77;;;;;;;0.74;100.00;100508.94;5057687;28;20028;-77
2022/11/21 03:44:08;;;;;;;5.25;3.75;;;;;;;0.90;100.00;100528.75;5042169;28;20029;-77
2022/11/21 03:46:36;;;;;;;3.33;3.08;;;;;;;0.95;100.00;100531.88;5069024;28;20036;-77
2022/11/21 03:49:02;;;;;;;3.90;3.25;;;;;;;0.93;100.00;100537.16;5072928;28;20114;-77
2022/11/21 03:51:28;;;;;;;14.88;4.22;;;;;;;0.77;100.00;100513.91;5073673;28;20516;-77
2022/11/21 03:53:54;;;;;;;5.35;2.85;;;;;;;0.82;100.00;100537.84;5037909;28;20483;-77
2022/11/21 03:56:20;;;;;;;5.28;3.05;;;;;;;0.77;100.00;100533.88;5056331;28;20024;-77
2022/11/21 03:58:46;;;;;;;8.10;3.58;;;;;;;0.87;100.00;100534.13;5072856;28;20411;-77
2022/11/21 04:01:12;;;;;;;5.07;3.75;;;;;;;0.94;100.00;100546.66;5055946;28;20036;-77
2022/11/21 04:03:39;;;;;;;10.82;4.50;;;;;;;0.97;100.00;100545.63;5055546;28;20090;-77
2022/11/21 04:06:04;;;;;;;4.43;3.45;;;;;;;0.87;100.00;100516.78;5073989;28;20051;-77
2022/11/21 04:08:30;;;;;;;5.07;4.50;;;;;;;0.90;100.00;100519.19;5076105;28;20041;-77
2022/11/21 04:10:55;;;;;;;8.98;6.10;;;;;;;1.05;100.00;100527.78;5039770;28;20098;-77
2022/11/21 04:13:21;;;;;;;10.60;4.65;;;;;;;1.02;100.00;100525.38;5041022;28;20043;-77
2022/11/21 04:15:46;;;;;;;5.38;3.33;;;;;;;0.79;100.00;100486.09;5053465;28;20126;-77
2022/11/21 04:18:12;;;;;;;9.57;4.70;;;;;;;0.88;100.00;100515.03;5040381;28;20044;-77
2022/11/21 04:20:38;;;;;;;7.72;4.53;;;;;;;0.67;100.00;100502.41;5050783;28;20074;-77
2022/11/21 04:23:04;;;;;;;7.40;3.55;;;;;;;0.53;100.00;100499.84;5040622;28;20029;-77
2022/11/21 04:25:30;;;;;;;5.95;4.50;;;;;;;0.46;100.00;100498.53;5076604;28;20036;-77
2022/11/21 04:27:56;;;;;;;5.82;3.85;;;;;;;0.58;100.00;100505.59;5045285;28;20036;-77
2022/11/21 04:30:22;;;;;;;8.25;4.60;;;;;;;0.52;100.00;100492.97;5078359;28;20029;-77
2022/11/21 04:32:49;;;;;;;4.43;3.92;;;;;;;0.34;100.00;100469.81;5058607;28;20037;-77
2022/11/21 04:35:15;;;;;;;5.75;2.75;;;;;;;0.48;100.00;100499.28;5077113;28;20056;-77
2022/11/21 04:37:40;;;;;;;6.05;4.80;;;;;;;0.38;100.00;100470.47;5044044;28;20125;-77
2022/11/21 04:40:06;;;;;;;4.75;4.13;;;;;;;0.46;100.00;100494.22;5061302;28;20029;-77
2022/11/21 04:42:31;;;;;;;4.90;3.40;;;;;;;-0.03;100.00;100440.06;5060443;28;20068;-77
2022/11/21 04:44:57;;;;;;;9.52;5.40;;;;;;;0.10;100.00;100468.72;5075119;28;20533;-77
2022/11/21 04:47:22;;;;;;;2.85;2.38;;;;;;;0.05;100.00;100470.75;5077528;28;20051;-77
2022/11/21 04:49:47;;;;;;;6.00;3.63;;;;;;;0.10;100.00;100473.91;5078115;28;20027;-77
2022/11/21 04:52:13;;;;;;;4.05;2.08;;;;;;;-0.03;100.00;100450.44;5045622;28;20407;-77
2022/11/21 04:54:38;;;;;;;4.85;3.92;;;;;;;0.07;100.00;100455.94;5025249;28;20039;-77
2022/11/21 04:57:04;;;;;;;5.85;5.35;;;;;;;0.04;100.00;100441.34;5025046;28;20094;-77
2022/11/21 04:59:29;;;;;;;5.78;5.25;;;;;;;0.19;100.00;100468.97;5060947;28;20059;-77
2022/11/21 05:01:54;;;;;;;7.60;4.93;;;;;;;0.02;100.00;100440.59;5076886;28;20469;-77
2022/11/21 05:04:20;;;;;;;3.83;3.03;;;;;;;0.08;100.00;100466.19;5057526;28;20047;-77
2022/11/21 05:06:46;;;;;;;8.00;4.57;;;;;;;-0.04;100.00;100454.81;5057856;28;20036;-77
2022/11/21 05:09:12;;;;;;;5.47;4.55;;;;;;;0.01;100.00;100461.47;5056213;28;20027;-77
2022/11/21 05:14:24;;;;;;;6.38;4.65;;;;;;;0.04;100.00;100467.31;5061645;28;20078;-77
2022/11/21 05:16:50;;;;;;;4.22;3.42;;;;;;;0.14;100.00;100475.38;5028481;28;20064;-77
2022/11/21 05:19:15;;;;;;;5.15;2.83;;;;;;;0.21;100.00;100468.88;5077692;28;20079;-77
2022/11/21 05:21:41;;;;;;;3.58;3.25;;;;;;;0.18;100.00;100463.91;5059793;28;20078;-77
2022/11/21 05:24:06;;;;;;;7.63;5.65;;;;;;;0.04;100.00;100456.09;5078842;28;20021;-77
2022/11/21 05:26:32;;;;;;;10.30;3.70;;;;;;;-0.04;100.00;100449.63;5072030;28;20518;-77
2022/11/21 05:28:57;;;;;;;4.25;3.00;;;;;;;-0.16;100.00;100419.22;5055381;28;20041;-77
2022/11/21 05:31:22;;;;;;;5.13;4.22;;;;;;;0.02;100.00;100447.56;5043330;28;20034;-77
2022/11/21 05:33:48;;;;;;;7.40;3.50;;;;;;;-0.05;100.00;100442.75;5056697;28;20036;-77
2022/11/21 05:36:13;;;;;;;7.30;3.85;;;;;;;-0.28;100.00;100404.41;5058013;28;20039;-77
2022/11/21 05:38:38;;;;;;;4.78;4.28;;;;;;;-0.03;100.00;100451.28;5051919;28;20040;-77
2022/11/21 05:41:04;;;;;;;5.10;2.55;;;;;;;-0.17;100.00;100438.31;5058768;28;20422;-77
2022/11/21 05:43:44;;;;;;;4.47;4.13;;;;;;;-0.17;100.00;100451.28;5034359;28;20622;-77
2022/11/21 05:46:14;;;;;;;5.43;3.50;;;;;;;-0.26;100.00;100456.97;5042906;28;20047;-77
2022/11/21 05:48:40;;;;;;;8.57;4.57;;;;;;;-0.50;100.00;100428.13;5073541;28;20028;-77
2022/11/21 05:51:05;;;;;;;5.25;4.18;;;;;;;-0.46;100.00;100458.16;5058894;28;20043;-77
2022/11/21 05:53:31;;;;;;;7.53;5.03;;;;;;;-0.56;100.00;100447.50;5073954;28;20036;-77
2022/11/21 05:56:21;;;;;;;4.25;3.85;;;;;;;-0.49;100.00;100432.41;5037840;28;20036;-77
2022/11/21 05:58:46;;;;;;;4.97;4.22;;;;;;;-0.37;100.00;100461.97;5072255;28;20074;-79
2022/11/21 06:01:13;;;;;;;5.88;3.55;;;;;;;-0.52;100.00;100441.22;5033852;28;20025;-77
2022/11/21 06:03:41;;;;;;;6.20;4.32;;;;;;;-0.68;100.00;100423.09;5072769;28;20052;-79
2022/11/21 06:06:11;;;;;;;6.65;4.10;;;;;;;-0.59;100.00;100442.47;5039543;28;20039;-78
2022/11/21 06:08:38;;;;;;;7.93;5.68;;;;;;;-0.58;100.00;100441.56;5060541;28;20115;-77
2022/11/21 06:11:05;;;;;;;5.75;4.85;;;;;;;-0.75;100.00;100420.97;5053502;28;20028;-78
2022/11/21 06:13:32;;;;;;;4.63;4.28;;;;;;;-0.77;100.00;100417.63;5046106;28;20039;-78
2022/11/21 06:16:03;;;;;;;5.55;4.65;;;;;;;-0.69;100.00;100429.22;5061924;28;20035;-78
2022/11/21 06:18:30;;;;;;;;;;;;;;;-0.57;100.00;100439.78;5039086;28;20056;-78
2022/11/21 06:21:06;;;;;;;4.47;3.35;;;;;;;-0.60;100.00;100443.41;5056092;28;19920;-79
2022/11/21 06:23:33;;;;;;;3.45;3.15;;;;;;;-0.62;100.00;100437.47;5047137;28;20689;-79
2022/11/21 06:26:01;;;;;;;7.35;4.90;;;;;;;-0.62;100.00;100432.28;5041596;28;20036;-78
2022/11/21 06:28:30;;;;;;;8.27;6.50;;;;;;;-0.67;100.00;100440.31;5049496;28;20579;-78
2022/11/21 06:30:55;;;;;;;8.02;6.18;;;;;;;-0.85;100.00;100408.53;5051677;28;20029;-77
2022/11/21 06:33:21;;;;;;;5.68;3.97;;;;;;;-0.64;100.00;100434.13;5045472;28;20087;-77
2022/11/21 06:35:46;;;;;;;6.43;5.72;;;;;;;-0.78;100.00;100410.75;5040589;28;20025;-77
2022/11/21 06:38:12;;;;;;;7.07;6.20;;;;;;;-0.78;100.00;100410.75;5048110;28;20123;-78
2022/11/21 06:40:38;;;;;;;7.03;6.32;;;;;;;-0.75;100.00;100413.19;5045625;28;20094;-77
2022/11/21 06:43:04;;;;;;;11.10;5.20;;;;;;;-0.71;100.00;100419.88;5035306;28;20033;-77
2022/11/21 06:45:29;;;;;;;7.38;5.85;;;;;;;-0.57;100.00;100434.59;5049216;28;20033;-78
2022/11/21 06:47:54;;;;;;;7.78;5.10;;;;;;;-0.53;100.00;100447.31;5052175;28;20043;-77
2022/11/21 06:50:20;;;;;;;6.30;5.68;;;;;;;-0.48;100.00;100450.47;5048583;28;20021;-77
2022/11/21 06:52:46;;;;;;;4.57;4.10;;;;;;;-0.57;100.00;100419.88;5069126;28;20356;-77
2022/11/21 06:55:12;;;;;;;7.90;6.78;;;;;;;-0.39;100.00;100437.88;5052360;28;20024;-77
2022/11/21 06:57:37;;;;;;;8.05;6.85;;;;;;;-0.30;100.00;100452.94;5049446;28;20499;-77
2022/11/21 07:00:04;;;;;;;5.68;5.22;;;;;;;-0.34;100.00;100443.66;5049697;28;20171;-78
2022/11/21 07:02:29;;;;;;;6.32;5.13;;;;;;;-0.27;100.00;100452.72;5050978;28;20033;-77
2022/11/21 07:04:54;;;;;;;9.25;5.45;;;;;;;-0.35;100.00;100440.19;5052941;28;20347;-77
2022/11/21 07:07:20;;;;;;;7.55;6.63;;;;;;;-0.32;100.00;100429.66;5052061;28;20111;-77
2022/11/21 07:09:46;;;;;;;4.70;4.38;;;;;;;-0.25;100.00;100449.13;5053863;28;20032;-77
2022/11/21 07:14:55;;;;;;;5.32;4.90;;;;;;;-0.50;100.00;100420.34;5055080;28;20448;-76
2022/11/21 07:17:20;;;;;;;6.15;4.35;;;;;;;-0.56;100.00;100437.13;5037149;28;20024;-76
2022/11/21 07:19:46;;;;;;;9.32;6.93;;;;;;;-0.72;100.00;100428.53;5067648;28;20048;-76
2022/11/21 07:22:11;;;;;;;10.60;6.80;;;;;;;-0.71;100.00;100430.22;5038822;28;20024;-76
2022/11/21 07:24:36;;;;;;;6.35;4.22;;;;;;;-0.80;100.00;100405.69;5057429;28;20032;-76
2022/11/21 07:27:02;;;;;;;7.45;5.68;;;;;;;-0.76;100.00;100412.34;5054150;28;20058;-76
2022/11/21 07:29:27;;;;;;;8.07;6.22;;;;;;;-0.92;100.00;100396.00;5076814;28;20043;-76
2022/11/21 07:31:53;;;;;;;8.70;6.25;;;;;;;-0.74;100.00;100427.78;5028750;28;20062;-76
2022/11/21 07:34:19;;;;;;;9.35;6.20;;;;;;;-0.76;100.00;100429.63;5075466;28;20025;-76
2022/11/21 07:36:44;;;;;;;7.55;5.75;;;;;;;-0.86;100.00;100418.97;5076042;28;20519;-76
2022/11/21 07:39:09;;;;;;;7.63;5.72;;;;;;;-0.64;100.00;100439.31;5028053;28;20032;-76
2022/11/21 07:41:35;;;;;;;6.90;4.85;;;;;;;-0.55;100.00;100432.75;5058951;28;20021;-76
2022/11/21 07:44:00;;;;;;;5.80;5.20;;;;;;;-0.35;100.00;100454.94;5058235;28;20062;-76
2022/11/21 07:46:25;;;;;;;13.38;5.28;;;;;;;-0.26;100.00;100463.03;5041627;28;20070;-76
2022/11/21 07:48:51;;;;;;;12.23;7.22;;;;;;;-0.20;100.00;100469.59;5074482;28;20036;-76
2022/11/21 07:51:16;;;;;;;8.15;6.03;;;;;;;-0.19;100.00;100458.31;5077884;28;20025;-77
2022/11/21 07:53:41;;;;;;;8.35;7.22;;;;;;;-0.08;100.00;100466.28;5057215;28;20039;-77
2022/11/21 07:56:10;;;;;;;13.27;7.60;;;;;;;-0.02;100.00;100463.34;5058776;28;20040;-76
2022/11/21 07:58:35;;;;;;;8.38;5.72;;;;;;;-0.03;100.00;100450.44;5030240;28;20034;-76
2022/11/21 08:01:05;;;;;;;8.45;6.03;;;;;;;0.08;100.00;100455.00;5079873;28;20021;-76
2022/11/21 08:03:34;;;;;;;6.72;5.95;;;;;;;0.14;100.00;100458.03;5063420;28;20032;-76
2022/11/21 08:06:03;;;;;;;6.40;5.80;;;;;;;0.09;100.00;100441.94;5044593;28;20067;-76
2022/11/21 08:08:29;;;;;;;5.97;5.45;;;;;;;0.10;100.00;100440.16;5077818;28;20048;-76
2022/11/21 08:10:54;;;;;;;5.00;4.53;;;;;;;0.03;100.00;100429.31;5076724;28;20023;-76
2022/11/21 08:13:20;;;;;;;10.68;5.88;;;;;;;0.00;100.00;100413.94;5077066;28;20036;-76
2022/11/21 08:15:45;;;;;;;13.23;4.43;;;;;;;-0.15;100.00;100381.13;5078057;28;20497;-76
2022/11/21 08:18:14;;;;;;;13.00;4.90;;;;;;;-0.17;100.00;100396.81;5059985;28;20123;-76
2022/11/21 08:20:40;;;;;;;5.05;4.57;;;;;;;-0.04;100.00;100402.09;5041328;28;20545;-78
2022/11/21 08:23:06;;;;;;;7.32;5.53;;;;;;;0.19;100.00;100408.47;5076626;28;20086;-77
2022/11/21 08:25:32;;;;;;;7.28;6.00;;;;;;;0.27;100.00;100406.22;5077334;28;20036;-77
2022/11/21 08:27:58;;;;;;;5.78;3.90;;;;;;;0.32;100.00;100404.16;5077547;28;20064;-76
2022/11/21 08:30:23;;;;;;;9.77;4.88;;;;;;;0.29;100.00;100391.41;5059430;28;20086;-76
2022/11/21 08:32:49;;;;;;;7.35;4.90;;;;;;;0.32;100.00;100378.22;5059880;28;20119;-77
2022/11/21 08:35:14;;;;;;;6.00;5.50;;;;;;;0.25;100.00;100383.91;5059746;28;20103;-77
2022/11/21 08:37:40;;;;;;;4.72;4.32;;;;;;;0.10;100.00;100367.50;5045135;28;20248;-77
2022/11/21 08:40:06;;;;;;;5.22;3.38;;;;;;;0.23;100.00;100383.97;5041869;28;20086;-77
2022/11/21 08:42:31;;;;;;;5.10;4.13;;;;;;;0.22;100.00;100387.53;5057154;28;20040;-77
2022/11/21 08:44:57;;;;;;;5.22;4.75;;;;;;;0.15;100.00;100394.84;5073718;28;20087;-78
2022/11/21 08:47:22;;;;;;;5.60;3.85;;;;;;;-0.05;100.00;100364.91;5042022;28;20056;-77
2022/11/21 08:49:48;;;;;;;8.10;5.30;;;;;;;0.20;100.00;100363.44;5076004;28;20388;-77
2022/11/21 08:52:16;;;;;;;6.57;5.30;;;;;;;0.48;100.00;100374.66;5042095;28;20040;-77
2022/11/21 08:54:43;;;;;;;9.93;7.75;;;;;;;0.84;100.00;100383.66;5076379;28;20066;-77
2022/11/21 08:57:09;;;;;;;12.32;8.48;;;;;;;1.35;100.00;100389.81;5057952;28;20035;-77
2022/11/21 08:59:34;;;;;;;12.13;8.32;;;;;;;1.87;100.00;100390.63;5074561;28;20032;-77
2022/11/21 09:02:00;;;;;;;13.85;6.95;;;;;;;1.78;100.00;100375.66;5073050;28;20085;-77
2022/11/21 09:04:26;;;;;;;12.57;7.40;;;;;;;2.28;100.00;100386.94;5074358;28;20061;-77
2022/11/21 09:06:51;;;;;;;12.50;7.70;;;;;;;2.17;100.00;100371.22;5059745;28;20032;-78
2022/11/21 09:09:16;;;;;;;9.10;7.15;;;;;;;1.85;100.00;100361.28;5055136;28;20395;-77
2022/11/21 09:11:42;;;;;;;9.60;5.32;;;;;;;1.76;100.00;100367.94;5040607;28;20400;-78
2022/11/21 09:19:35;;;;;;;11.02;6.38;;;;;;;1.26;100.00;100367.00;5074586;28;20106;-77
2022/11/21 09:22:00;;;;;;;8.95;4.35;;;;;;;1.01;100.00;100360.00;5056664;28;20049;-77
2022/11/21 09:24:26;;;;;;;13.82;4.65;;;;;;;0.69;100.00;100334.34;5056442;28;20028;-77
2022/11/21 09:26:51;;;;;;;8.68;5.57;;;;;;;0.77;100.00;100365.84;5074524;28;20052;-77
2022/11/21 09:29:17;;;;;;;6.68;5.05;;;;;;;0.64;100.00;100372.75;5073749;28;20020;-77
2022/11/21 09:31:43;;;;;;;9.20;5.47;;;;;;;0.46;100.00;100353.16;5055499;28;20056;-77
2022/11/21 09:34:09;;;;;;;6.38;4.65;;;;;;;0.38;100.00;100330.28;5057330;28;20492;-77
2022/11/21 09:36:34;;;;;;;13.40;4.30;;;;;;;0.51;100.00;100351.94;5054998;28;20162;-77
2022/11/21 09:38:59;;;;;;;6.90;4.43;;;;;;;0.65;100.00;100353.63;5054536;28;20043;-78
2022/11/21 09:41:52;;;;;;;6.78;5.00;;;;;;;0.59;100.00;100356.66;5072643;28;20525;-77
2022/11/21 09:45:08;;;;;;;5.60;4.15;;;;;;;0.76;100.00;100355.56;5073381;28;20463;-77
2022/11/21 09:47:41;;;;;;;8.93;4.93;;;;;;;0.73;100.00;100335.81;4992836;28;20070;-77
2022/11/21 09:50:12;;;;;;;12.73;5.25;;;;;;;0.74;100.00;100354.81;4993645;28;20834;-77
2022/11/21 09:52:48;;;;;;;10.02;7.40;;;;;;;0.60;100.00;100345.31;4994638;28;20521;-77
2022/11/21 09:55:20;;;;;;;7.63;4.32;;;;;;;0.61;100.00;100357.38;4994216;28;20185;-77
2022/11/21 09:57:48;;;;;;;8.00;5.65;;;;;;;0.68;100.00;100345.66;4995057;28;20049;-77
2022/11/21 10:00:24;;;;;;;9.70;4.47;;;;;;;0.78;100.00;100325.97;4985411;28;20022;-77
2022/11/21 10:02:54;;;;;;;7.38;5.70;;;;;;;0.90;100.00;100341.69;4993880;28;20052;-77
2022/11/21 10:05:34;;;;;;;10.73;5.07;;;;;;;0.94;100.00;100327.56;4994328;28;20038;-77
2022/11/21 10:08:34;;;;;;;8.38;4.10;;;;;;;0.91;100.00;100296.56;4992849;28;20037;-77
2022/11/21 10:11:23;;;;;;;8.15;4.25;;;;;;;1.17;100.00;100313.84;4954710;28;20050;-79
2022/11/21 10:14:04;;;;;;;10.60;5.60;;;;;;;1.31;100.00;100310.34;4951773;28;20046;-78
2022/11/21 10:16:57;;;;;;;14.77;5.97;;;;;;;1.55;100.00;100307.84;4954819;28;20337;-78
2022/11/21 10:19:53;;;;;;;12.48;5.50;;;;;;;1.50;100.00;100298.66;4938254;28;20519;-78
2022/11/21 10:22:33;;;;;;;9.27;5.88;;;;;;;1.74;100.00;100303.94;4954243;28;20048;-78
2022/11/21 10:25:11;;;;;;;11.25;6.82;;;;;;;1.89;100.00;100284.66;5021258;28;20061;-78
2022/11/21 10:27:49;;;;;;;8.80;5.60;;;;;;;2.00;100.00;100276.94;5020023;28;20037;-78
2022/11/21 10:30:17;;;;;;;12.57;6.90;;;;;;;2.18;100.00;100242.75;5005370;28;20445;-78
2022/11/21 10:32:49;;;;;;;8.77;6.20;;;;;;;2.28;100.00;100254.13;5007716;28;20025;-79
2022/11/21 10:35:40;;;;;;;8.40;5.30;;;;;;;2.21;100.00;100263.34;5024658;28;20489;-78
2022/11/21 10:38:20;;;;;;;9.80;6.85;;;;;;;2.38;100.00;100269.94;5019244;28;20041;-78
2022/11/21 10:40:50;;;;;;;8.60;5.15;;;;;;;2.40;100.00;100240.22;5020282;28;20486;-78
2022/11/21 10:46:07;;;;;;;16.42;5.32;;;;;;;2.36;100.00;100230.97;5036814;28;20051;-78
2022/11/21 10:48:33;;;;;;;9.55;4.30;;;;;;;2.35;100.00;100241.50;5052221;28;20412;-78
2022/11/21 10:51:23;;;;;;;10.80;6.65;;;;;;;2.49;100.00;100248.31;5024458;28;20074;-78
2022/11/21 10:56:53;;;;;;;7.57;4.40;;;;;;;2.47;100.00;100197.16;5073003;28;20048;-78
2022/11/21 10:59:29;;;;;;;11.23;6.40;;;;;;;2.47;100.00;100224.97;5056162;28;20035;-78
2022/11/21 11:02:01;;;;;;;5.45;3.70;;;;;;;2.53;100.00;100245.38;5072885;28;20567;-78
2022/11/21 11:04:28;;;;;;;5.75;4.30;;;;;;;2.82;100.00;100243.19;5055002;28;20024;-78
2022/11/21 11:06:54;;;;;;;8.10;4.30;;;;;;;2.94;100.00;100232.78;5057127;28;20063;-78
2022/11/21 11:09:22;;;;;;;9.48;4.35;;;;;;;2.80;100.00;100239.03;5072257;28;20021;-78
2022/11/21 11:11:48;;;;;;;6.57;5.50;;;;;;;2.60;100.00;100237.94;5056494;28;20032;-78
2022/11/21 11:14:14;;;;;;;8.07;5.78;;;;;;;2.38;100.00;100210.03;5054199;28;20054;-78
2022/11/21 11:16:45;;;;;;;9.23;5.38;;;;;;;2.48;100.00;100213.59;5053379;28;20025;-78
2022/11/21 11:19:13;;;;;;;;;;;;;;;2.76;100.00;100235.81;5073615;28;20052;-77
2022/11/21 11:21:39;;;;;;;5.97;3.42;;;;;;;2.76;100.00;100235.81;5072742;28;20311;-78
2022/11/21 11:24:08;;;;;;;9.32;5.90;;;;;;;2.79;100.00;100235.63;5054802;28;20028;-78
2022/11/21 11:26:33;;;;;;;7.53;3.85;;;;;;;2.81;100.00;100225.06;5054220;28;20029;-78
2022/11/21 11:29:13;;;;;;;11.20;6.28;;;;;;;2.86;100.00;100208.13;5053640;28;20701;-78
2022/11/21 11:31:59;;;;;;;5.38;3.58;;;;;;;2.82;100.00;100217.13;5055170;28;20135;-78
2022/11/21 11:34:38;;;;;;;5.90;3.40;;;;;;;2.98;100.00;100210.75;5074073;28;20037;-78
2022/11/21 11:37:17;;;;;;;5.80;4.88;;;;;;;2.44;100.00;100180.94;5072362;28;20279;-78
2022/11/21 11:39:55;;;;;;;10.18;4.95;;;;;;;2.42;100.00;100193.25;5070867;28;20030;-78
2022/11/21 11:48:23;;;;;;;5.90;3.85;;;;;;;3.17;100.00;100184.94;5071431;28;20402;-78